Time;durP1;ratioP1;P1;durP2;ratioP2;P2;SDS_P1;SDS_P2;PMS_P1;PMS_P2;Temp;Humidity;BMP_temperature;BMP_pressure;BME280_temperature;BME280_humidity;BME280_pressure;Samples;Min_cycle;Max_cycle;Signal;HPM_P1;HPM_P2
2023/04/10 00:02:24;;;;;;;42.55;30.33;;;9.00;99.90;;;;;;6068408;23;92512;-74
2023/04/10 00:04:51;;;;;;;45.17;32.58;;;9.00;99.90;;;;;;6095559;23;91684;-74
2023/04/10 00:07:18;;;;;;;44.97;33.08;;;9.00;99.90;;;;;;6094652;23;93008;-75
2023/04/10 00:09:45;;;;;;;45.85;31.80;;;9.00;99.90;;;;;;6094880;23;92999;-75
2023/04/10 00:12:13;;;;;;;44.80;32.50;;;9.00;99.90;;;;;;6093057;23;94812;-74
2023/04/10 00:14:40;;;;;;;46.85;33.97;;;9.00;99.90;;;;;;6069075;23;92535;-75
2023/04/10 00:17:07;;;;;;;46.70;33.90;;;9.00;99.90;;;;;;6094521;23;93236;-74
2023/04/10 00:19:34;;;;;;;42.97;34.20;;;9.00;99.90;;;;;;6068802;23;93010;-74
2023/04/10 00:22:01;;;;;;;45.67;33.78;;;9.00;99.90;;;;;;6068210;23;92402;-74
2023/04/10 00:24:28;;;;;;;44.97;33.90;;;9.00;99.90;;;;;;6069066;23;92466;-74
2023/04/10 00:26:56;;;;;;;46.58;35.03;;;8.90;99.90;;;;;;6094818;23;93088;-74
2023/04/10 00:29:23;;;;;;;44.67;33.05;;;8.90;99.90;;;;;;6068523;23;95871;-75
2023/04/10 00:31:50;;;;;;;48.60;36.03;;;8.90;99.90;;;;;;6069077;23;92374;-74
2023/04/10 00:34:17;;;;;;;45.55;34.03;;;8.90;99.90;;;;;;6044223;23;92535;-75
2023/04/10 00:36:46;;;;;;;45.17;34.80;;;8.90;99.90;;;;;;6042680;23;97768;-74
2023/04/10 00:39:13;;;;;;;45.58;33.45;;;8.90;99.90;;;;;;6067837;23;96617;-74
2023/04/10 00:41:40;;;;;;;47.53;35.22;;;8.90;99.90;;;;;;6095011;23;92323;-75
2023/04/10 00:44:07;;;;;;;45.95;34.42;;;8.90;99.90;;;;;;6044353;23;92514;-74
2023/04/10 00:46:36;;;;;;;43.17;31.80;;;8.90;99.90;;;;;;6068594;23;93286;-74
2023/04/10 00:49:05;;;;;;;41.45;32.08;;;8.90;99.90;;;;;;6068697;23;93153;-74
2023/04/10 00:51:32;;;;;;;45.83;35.20;;;8.80;99.90;;;;;;6021194;23;92599;-74
2023/04/10 00:54:01;;;;;;;45.97;33.13;;;8.90;99.90;;;;;;6044884;23;91751;-74
2023/04/10 00:56:31;;;;;;;41.97;30.55;;;8.90;99.90;;;;;;6068682;23;93300;-74
2023/04/10 00:58:58;;;;;;;43.25;32.67;;;8.90;99.90;;;;;;6044355;23;95580;-74
2023/04/10 01:01:25;;;;;;;44.22;32.42;;;8.90;99.90;;;;;;6067750;23;94880;-74
2023/04/10 01:03:53;;;;;;;43.95;32.55;;;8.80;99.90;;;;;;6095782;23;92350;-74
2023/04/10 01:06:29;;;;;;;41.40;29.63;;;8.90;99.90;;;;;;6069013;23;95516;-74
2023/04/10 01:09:33;;;;;;;42.28;29.80;;;8.80;99.90;;;;;;6095738;23;92895;-74
2023/04/10 01:12:20;;;;;;;47.00;32.58;;;8.80;99.90;;;;;;6069815;23;92363;-74
2023/04/10 01:15:04;;;;;;;44.88;33.65;;;8.80;99.90;;;;;;6069703;23;92492;-74
2023/04/10 01:17:40;;;;;;;43.90;32.58;;;8.90;99.90;;;;;;6069606;23;93190;-74
2023/04/10 01:20:23;;;;;;;45.47;31.05;;;8.80;99.90;;;;;;6070247;23;93047;-74
2023/04/10 01:23:27;;;;;;;46.67;34.72;;;8.80;99.90;;;;;;6095368;23;92362;-74
2023/04/10 01:26:03;;;;;;;44.23;30.40;;;8.80;99.90;;;;;;6096046;23;92402;-75
2023/04/10 01:28:55;;;;;;;48.47;33.25;;;8.70;99.90;;;;;;6044242;23;98019;-74
2023/04/10 01:31:31;;;;;;;44.30;32.53;;;8.70;99.90;;;;;;6069099;23;97970;-74
2023/04/10 01:34:09;;;;;;;45.63;30.85;;;8.60;99.90;;;;;;6095866;23;92334;-75
2023/04/10 01:36:42;;;;;;;45.50;33.80;;;8.60;99.90;;;;;;6069367;23;92952;-74
2023/04/10 01:39:10;;;;;;;43.63;33.35;;;8.60;99.90;;;;;;6095672;23;93043;-74
2023/04/10 01:41:40;;;;;;;44.03;32.03;;;8.60;99.90;;;;;;6069010;23;93955;-74
2023/04/10 01:44:13;;;;;;;41.92;31.38;;;8.50;99.90;;;;;;6069256;23;92978;-74
2023/04/10 01:46:43;;;;;;;43.58;31.73;;;8.50;99.90;;;;;;6069797;23;91759;-74
2023/04/10 01:49:12;;;;;;;40.35;29.30;;;8.50;99.90;;;;;;6069084;23;96089;-74
2023/04/10 01:51:40;;;;;;;42.90;31.27;;;8.50;99.90;;;;;;6068656;23;95330;-74
2023/04/10 01:54:10;;;;;;;46.78;32.55;;;8.50;99.90;;;;;;6068113;23;94797;-74
2023/04/10 01:56:37;;;;;;;44.15;30.95;;;8.50;99.90;;;;;;6095647;23;92973;-74
2023/04/10 01:59:05;;;;;;;42.53;30.58;;;8.50;99.90;;;;;;6044942;23;95460;-74
2023/04/10 02:01:32;;;;;;;43.67;32.80;;;8.50;99.90;;;;;;6069033;23;95527;-74
2023/04/10 02:04:00;;;;;;;44.65;31.33;;;8.50;99.90;;;;;;6069332;23;92989;-74
2023/04/10 02:06:36;;;;;;;42.72;28.83;;;8.50;99.90;;;;;;6044737;23;92488;-74
2023/04/10 02:09:21;;;;;;;44.95;31.30;;;8.50;99.90;;;;;;6069312;23;95713;-74
2023/04/10 02:11:56;;;;;;;40.10;29.20;;;8.50;99.90;;;;;;6069690;23;95535;-74
2023/04/10 02:14:27;;;;;;;39.58;30.50;;;8.40;99.90;;;;;;6069252;23;92989;-74
2023/04/10 02:16:55;;;;;;;36.20;25.80;;;8.40;99.90;;;;;;6095665;23;92323;-74
2023/04/10 02:19:24;;;;;;;41.65;30.08;;;8.40;99.90;;;;;;6043089;23;97848;-74
2023/04/10 02:21:52;;;;;;;42.50;30.55;;;8.40;99.90;;;;;;6068599;23;97785;-74
2023/04/10 02:24:20;;;;;;;38.55;29.33;;;8.40;99.90;;;;;;6069559;23;92362;-75
2023/04/10 02:26:49;;;;;;;40.90;29.40;;;8.40;99.90;;;;;;6021400;23;92700;-74
2023/04/10 02:29:17;;;;;;;39.28;29.58;;;8.40;99.90;;;;;;6068997;23;95729;-75
2023/04/10 02:31:45;;;;;;;40.63;29.55;;;8.30;99.90;;;;;;6044484;23;95757;-74
2023/04/10 02:34:13;;;;;;;39.47;30.25;;;8.30;99.90;;;;;;6069057;23;92523;-74
2023/04/10 02:36:40;;;;;;;39.80;29.58;;;8.30;99.90;;;;;;6095834;23;92244;-74
2023/04/10 02:39:09;;;;;;;39.22;28.55;;;8.30;99.90;;;;;;6068788;23;94003;-75
2023/04/10 02:41:45;;;;;;;39.15;29.65;;;8.30;99.90;;;;;;6068977;23;95472;-75
2023/04/10 02:44:13;;;;;;;39.10;28.42;;;8.20;99.90;;;;;;6043526;23;94902;-74
2023/04/10 02:46:41;;;;;;;40.75;28.23;;;8.20;99.90;;;;;;6068890;23;92483;-75
2023/04/10 02:49:09;;;;;;;40.03;29.02;;;8.20;99.90;;;;;;6068926;23;95491;-74
2023/04/10 02:51:36;;;;;;;39.35;29.92;;;8.10;99.90;;;;;;6068724;23;95061;-74
2023/04/10 02:54:03;;;;;;;40.08;29.88;;;8.20;99.90;;;;;;6069053;23;92432;-75
2023/04/10 02:56:35;;;;;;;38.53;28.80;;;8.20;99.90;;;;;;6068519;23;92502;-74
2023/04/10 02:59:02;;;;;;;39.33;28.77;;;8.10;99.90;;;;;;6069120;23;93987;-74
2023/04/10 03:01:30;;;;;;;38.58;28.70;;;8.10;99.90;;;;;;6045021;23;95552;-75
2023/04/10 03:03:58;;;;;;;41.92;29.95;;;8.10;99.90;;;;;;6069014;23;92715;-75
2023/04/10 03:06:32;;;;;;;40.25;26.92;;;8.10;99.90;;;;;;6068940;23;92521;-74
2023/04/10 03:08:59;;;;;;;39.13;27.98;;;8.10;99.90;;;;;;6067523;23;98130;-74
2023/04/10 03:11:26;;;;;;;43.80;32.20;;;8.10;99.90;;;;;;6044811;23;96523;-74
2023/04/10 03:13:54;;;;;;;41.10;30.58;;;8.10;99.90;;;;;;6068954;23;92493;-74
2023/04/10 03:16:21;;;;;;;38.63;29.17;;;8.00;99.90;;;;;;6045033;23;92530;-74
2023/04/10 03:18:48;;;;;;;36.50;27.23;;;8.10;99.90;;;;;;6069066;23;93096;-75
2023/04/10 03:21:15;;;;;;;40.38;28.02;;;8.10;99.90;;;;;;6068414;23;95591;-74
2023/04/10 03:23:42;;;;;;;38.47;28.05;;;8.10;99.90;;;;;;6068281;23;92437;-74
2023/04/10 03:26:10;;;;;;;41.42;27.95;;;8.10;99.90;;;;;;6070481;23;92234;-74
2023/04/10 03:28:38;;;;;;;40.58;28.63;;;8.10;99.90;;;;;;6068477;23;95699;-74
2023/04/10 03:31:08;;;;;;;37.95;27.88;;;8.10;99.90;;;;;;6068904;23;95340;-75
2023/04/10 03:33:35;;;;;;;37.55;26.75;;;8.10;99.90;;;;;;6043275;23;94831;-74
2023/04/10 03:36:03;;;;;;;38.83;27.08;;;8.00;99.90;;;;;;6068934;23;92487;-74
2023/04/10 03:38:32;;;;;;;39.75;28.02;;;8.10;99.90;;;;;;6068234;23;94498;-74
2023/04/10 03:40:59;;;;;;;43.03;29.25;;;8.10;99.90;;;;;;6068658;23;95363;-74
2023/04/10 03:43:30;;;;;;;40.15;28.45;;;8.10;99.90;;;;;;6045411;23;92426;-74
2023/04/10 03:45:57;;;;;;;40.97;29.25;;;8.10;99.90;;;;;;6044811;23;92500;-75
2023/04/10 03:48:27;;;;;;;45.80;29.55;;;8.10;99.90;;;;;;6068678;23;95697;-74
2023/04/10 03:50:54;;;;;;;44.63;29.88;;;8.10;99.90;;;;;;6021502;23;95532;-74
2023/04/10 03:53:21;;;;;;;40.13;28.45;;;8.20;99.90;;;;;;6068794;23;92335;-74
2023/04/10 03:55:53;;;;;;;43.90;30.33;;;8.20;99.90;;;;;;6068320;23;92561;-74
2023/04/10 03:58:21;;;;;;;41.72;30.83;;;8.20;99.90;;;;;;6067302;23;97767;-74
2023/04/10 04:00:50;;;;;;;40.85;29.48;;;8.30;99.90;;;;;;6094440;23;95105;-74
2023/04/10 04:03:31;;;;;;;43.90;29.95;;;8.30;99.90;;;;;;6047083;23;92500;-74
2023/04/10 04:05:58;;;;;;;42.15;29.83;;;8.30;99.90;;;;;;6068844;23;92401;-74
2023/04/10 04:08:25;;;;;;;43.00;29.77;;;8.30;99.90;;;;;;6094924;23;92901;-74
2023/04/10 04:11:15;;;;;;;42.70;28.67;;;8.40;99.90;;;;;;6040169;23;92784;-74
2023/04/10 04:13:57;;;;;;;42.92;29.63;;;8.40;99.90;;;;;;6047748;23;92386;-74
2023/04/10 04:16:47;;;;;;;43.30;30.45;;;8.50;99.90;;;;;;6094148;23;91760;-74
2023/04/10 04:19:45;;;;;;;42.17;31.55;;;8.50;99.90;;;;;;6094514;23;93051;-74
2023/04/10 04:22:31;;;;;;;50.55;32.28;;;8.50;99.90;;;;;;6072865;23;92484;-74
2023/04/10 04:25:09;;;;;;;42.65;30.83;;;8.50;99.90;;;;;;6067326;23;94803;-74
2023/04/10 04:27:51;;;;;;;39.47;27.83;;;8.60;99.90;;;;;;6047523;23;92649;-74
2023/04/10 04:30:36;;;;;;;44.35;31.35;;;8.60;99.90;;;;;;6072900;23;92654;-74
2023/04/10 04:33:10;;;;;;;42.15;29.10;;;8.60;99.90;;;;;;6067922;23;95922;-74
2023/04/10 04:35:56;;;;;;;43.45;30.92;;;8.60;99.90;;;;;;6094600;23;92385;-74
2023/04/10 04:38:42;;;;;;;44.53;31.13;;;8.70;99.90;;;;;;6094826;23;92475;-74
2023/04/10 04:41:25;;;;;;;40.20;28.42;;;8.70;99.90;;;;;;6047255;23;95008;-74
2023/04/10 04:44:13;;;;;;;42.33;31.13;;;8.70;99.90;;;;;;6068916;23;95488;-74
2023/04/10 04:46:58;;;;;;;42.92;29.80;;;8.70;99.90;;;;;;6094664;23;92494;-74
2023/04/10 04:49:52;;;;;;;49.63;32.88;;;8.80;99.90;;;;;;6094532;23;92472;-74
2023/04/10 04:52:28;;;;;;;50.05;31.35;;;8.80;99.90;;;;;;6044340;23;98181;-74
2023/04/10 04:55:08;;;;;;;48.55;32.88;;;8.80;99.90;;;;;;6068278;23;97659;-75
2023/04/10 04:57:52;;;;;;;;;;;8.80;99.90;;;;;;6094926;23;92299;-74
2023/04/10 05:00:27;;;;;;;42.72;29.02;;;8.70;99.90;;;;;;6070705;23;92357;-74
2023/04/10 05:02:54;;;;;;;48.22;35.40;;;8.70;99.90;;;;;;6068348;23;92469;-74
2023/04/10 05:05:39;;;;;;;45.17;31.42;;;8.70;99.90;;;;;;6094439;23;92526;-74
2023/04/10 05:08:21;;;;;;;45.35;30.08;;;8.70;99.90;;;;;;6047336;23;92859;-74
2023/04/10 05:11:14;;;;;;;44.38;31.38;;;8.60;99.90;;;;;;6091607;23;91570;-74
2023/04/10 05:13:56;;;;;;;42.63;30.13;;;8.60;99.90;;;;;;6046752;23;95735;-74
2023/04/10 05:16:41;;;;;;;46.80;32.58;;;8.60;99.90;;;;;;6094528;23;92402;-74
2023/04/10 05:19:20;;;;;;;45.13;30.98;;;8.60;99.90;;;;;;6069411;23;95325;-74
2023/04/10 05:21:50;;;;;;;46.50;31.73;;;8.60;99.90;;;;;;6094348;23;92405;-74
2023/04/10 05:24:43;;;;;;;42.72;30.15;;;8.60;99.90;;;;;;6092056;23;92899;-74
2023/04/10 05:27:17;;;;;;;47.03;31.90;;;8.50;99.90;;;;;;6045299;23;95299;-74
2023/04/10 05:30:03;;;;;;;46.22;32.03;;;8.60;99.90;;;;;;6094123;23;92306;-74
2023/04/10 05:32:55;;;;;;;46.37;30.63;;;8.60;99.90;;;;;;6070472;23;92387;-74
2023/04/10 05:35:38;;;;;;;44.25;31.83;;;8.60;99.90;;;;;;6067968;23;95810;-74
2023/04/10 05:38:23;;;;;;;49.40;33.80;;;8.70;99.90;;;;;;6068366;23;95358;-74
2023/04/10 05:41:23;;;;;;;42.90;30.85;;;8.70;99.90;;;;;;6027404;23;92445;-75
2023/04/10 05:44:17;;;;;;;46.03;31.38;;;8.80;99.90;;;;;;6049936;23;92660;-74
2023/04/10 05:46:56;;;;;;;44.92;32.65;;;8.90;99.90;;;;;;6070479;23;95361;-74
2023/04/10 05:49:38;;;;;;;44.05;31.55;;;8.90;99.90;;;;;;6095428;23;93806;-74
2023/04/10 05:52:25;;;;;;;47.28;32.53;;;9.00;99.90;;;;;;6049421;23;92452;-74
2023/04/10 05:55:19;;;;;;;44.58;32.55;;;9.10;99.90;;;;;;6069656;23;92472;-74
2023/04/10 05:58:05;;;;;;;48.50;32.30;;;9.20;99.90;;;;;;6073346;23;92696;-74
2023/04/10 06:00:50;;;;;;;48.28;33.47;;;9.30;99.90;;;;;;6048966;23;95268;-74
2023/04/10 06:03:38;;;;;;;45.38;31.10;;;9.40;99.90;;;;;;6029706;23;93121;-74
2023/04/10 06:06:06;;;;;;;46.53;32.33;;;9.50;99.90;;;;;;6070306;23;92171;-74
2023/04/10 06:08:33;;;;;;;49.20;36.08;;;9.60;99.90;;;;;;6044997;23;95384;-74
2023/04/10 06:11:01;;;;;;;45.47;32.85;;;9.80;99.90;;;;;;6068952;23;95375;-74
2023/04/10 06:13:31;;;;;;;47.03;33.85;;;9.90;99.90;;;;;;6067458;23;94861;-74
2023/04/10 06:16:00;;;;;;;44.03;31.17;;;10.00;99.90;;;;;;6045593;23;92544;-74
2023/04/10 06:18:29;;;;;;;43.05;31.25;;;10.20;99.90;;;;;;6045086;23;95397;-74
2023/04/10 06:20:59;;;;;;;43.33;33.20;;;10.20;99.90;;;;;;6095085;23;92897;-75
2023/04/10 06:23:26;;;;;;;47.17;33.97;;;10.30;99.90;;;;;;6095280;23;92403;-74
2023/04/10 06:25:54;;;;;;;46.80;33.53;;;10.50;99.90;;;;;;6069837;23;93429;-74
2023/04/10 06:28:21;;;;;;;46.78;33.25;;;10.60;99.90;;;;;;6068960;23;95575;-74
2023/04/10 06:30:53;;;;;;;45.28;32.60;;;10.80;99.90;;;;;;6047235;23;95041;-74
2023/04/10 06:33:27;;;;;;;46.17;34.63;;;11.20;99.90;;;;;;6069338;23;92957;-74
2023/04/10 06:35:56;;;;;;;43.50;31.80;;;11.60;99.90;;;;;;6068079;23;93294;-74
2023/04/10 06:38:23;;;;;;;43.38;34.38;;;11.90;99.90;;;;;;6068255;23;95562;-74
2023/04/10 06:40:50;;;;;;;46.20;33.10;;;12.10;99.70;;;;;;6044983;23;98260;-74
2023/04/10 06:43:17;;;;;;;45.08;35.00;;;12.30;99.50;;;;;;6069338;23;92425;-75
2023/04/10 06:45:44;;;;;;;46.97;34.70;;;12.30;99.60;;;;;;6044912;23;92467;-74
2023/04/10 06:48:11;;;;;;;42.22;32.97;;;12.40;99.40;;;;;;6068799;23;94289;-74
2023/04/10 06:50:39;;;;;;;44.72;36.38;;;12.30;99.30;;;;;;6095379;23;92972;-74
2023/04/10 06:53:05;;;;;;;44.53;35.83;;;12.50;99.40;;;;;;6095119;23;92364;-74
2023/04/10 06:55:32;;;;;;;46.08;35.30;;;12.70;99.30;;;;;;6069730;23;91642;-74
2023/04/10 06:57:59;;;;;;;42.72;31.15;;;12.90;98.90;;;;;;6068895;23;93230;-75
2023/04/10 07:00:27;;;;;;;42.58;33.83;;;12.90;98.50;;;;;;6044612;23;95404;-75
2023/04/10 07:02:54;;;;;;;39.58;30.55;;;13.10;98.50;;;;;;6067578;23;94861;-74
2023/04/10 07:05:21;;;;;;;46.92;34.95;;;13.00;98.20;;;;;;6095025;23;92415;-75
2023/04/10 07:07:49;;;;;;;41.33;30.50;;;13.10;98.30;;;;;;6044781;23;99364;-74
2023/04/10 07:10:16;;;;;;;42.85;33.50;;;13.20;98.20;;;;;;6094567;23;92957;-74
2023/04/10 07:12:43;;;;;;;41.13;30.67;;;13.30;97.90;;;;;;6068897;23;92408;-74
2023/04/10 07:15:11;;;;;;;41.58;32.03;;;13.40;97.90;;;;;;6069003;23;93182;-74
2023/04/10 07:17:38;;;;;;;40.03;32.15;;;13.50;98.00;;;;;;6069346;23;93270;-74
2023/04/10 07:20:05;;;;;;;39.97;31.88;;;13.50;97.60;;;;;;6069611;23;93290;-75
2023/04/10 07:22:32;;;;;;;42.05;31.50;;;13.50;97.60;;;;;;6094936;23;92654;-75
2023/04/10 07:24:59;;;;;;;38.88;28.63;;;13.50;97.60;;;;;;6069193;23;92485;-75
2023/04/10 07:27:26;;;;;;;40.47;32.00;;;13.50;97.30;;;;;;6093291;23;96845;-74
2023/04/10 07:29:55;;;;;;;37.55;28.27;;;13.40;97.40;;;;;;6068586;23;106061;-75
2023/04/10 07:32:23;;;;;;;35.30;28.92;;;13.40;97.20;;;;;;6068475;23;92390;-74
2023/04/10 07:34:50;;;;;;;37.85;30.67;;;13.30;97.40;;;;;;6095283;23;92376;-74
2023/04/10 07:37:17;;;;;;;37.60;29.17;;;13.20;97.40;;;;;;6068816;23;93020;-74
2023/04/10 07:39:44;;;;;;;33.13;26.08;;;13.30;97.30;;;;;;6094968;23;92819;-75
2023/04/10 07:42:11;;;;;;;35.28;27.95;;;13.40;96.90;;;;;;6044379;23;92385;-74
2023/04/10 07:44:38;;;;;;;33.90;28.55;;;13.60;97.00;;;;;;6069231;23;91699;-75
2023/04/10 07:47:05;;;;;;;32.92;26.02;;;13.70;97.00;;;;;;6069176;23;93954;-74
2023/04/10 07:49:32;;;;;;;31.88;26.08;;;13.80;96.60;;;;;;6094993;23;93003;-75
2023/04/10 07:51:59;;;;;;;32.95;26.98;;;13.90;96.60;;;;;;6043120;23;94942;-75
2023/04/10 07:54:26;;;;;;;31.50;26.33;;;14.10;96.40;;;;;;6095050;23;93314;-75
2023/04/10 07:56:53;;;;;;;29.48;24.70;;;14.30;96.10;;;;;;6044743;23;95861;-75
2023/04/10 07:59:20;;;;;;;30.55;25.75;;;14.60;95.80;;;;;;6067919;23;104522;-74
2023/04/10 08:01:47;;;;;;;27.58;23.25;;;15.10;95.40;;;;;;6044724;23;92467;-74
2023/04/10 08:04:14;;;;;;;25.42;22.70;;;15.80;94.80;;;;;;6044353;23;92503;-74
2023/04/10 08:06:41;;;;;;;26.63;23.73;;;16.40;93.90;;;;;;6069040;23;93273;-74
2023/04/10 08:09:08;;;;;;;26.23;23.45;;;16.90;93.10;;;;;;6095281;23;92965;-74
2023/04/10 08:11:36;;;;;;;25.60;22.90;;;17.60;92.20;;;;;;6095032;23;92398;-74
2023/04/10 08:14:05;;;;;;;24.60;22.00;;;18.30;91.10;;;;;;6095073;23;92427;-74
2023/04/10 08:16:35;;;;;;;23.33;20.90;;;18.60;88.70;;;;;;6019222;23;97143;-74
2023/04/10 08:19:02;;;;;;;23.00;20.77;;;18.90;86.80;;;;;;6094678;23;95841;-75
2023/04/10 08:21:30;;;;;;;23.55;21.17;;;19.10;84.40;;;;;;6068811;23;92489;-75
2023/04/10 08:24:00;;;;;;;21.58;19.48;;;19.50;84.30;;;;;;6094537;23;92457;-75
2023/04/10 08:26:28;;;;;;;22.13;19.83;;;19.70;79.60;;;;;;6043897;23;95837;-75
2023/04/10 08:28:58;;;;;;;21.05;18.85;;;19.70;78.00;;;;;;6094699;23;92854;-75
2023/04/10 08:31:26;;;;;;;19.63;17.63;;;19.80;78.10;;;;;;6068721;23;92397;-75
2023/04/10 08:33:53;;;;;;;20.92;18.65;;;19.80;76.20;;;;;;6095269;23;91644;-75
2023/04/10 08:36:21;;;;;;;18.80;16.90;;;19.70;76.90;;;;;;6094344;23;93034;-75
2023/04/10 08:38:48;;;;;;;19.50;17.70;;;19.40;76.30;;;;;;6044568;23;93380;-75
2023/04/10 08:41:17;;;;;;;18.90;17.13;;;19.50;76.80;;;;;;6042518;23;94879;-75
2023/04/10 08:43:45;;;;;;;17.20;15.10;;;19.50;76.30;;;;;;6068377;23;92537;-75
2023/04/10 08:46:13;;;;;;;18.52;16.67;;;19.30;75.20;;;;;;6067954;23;95787;-75
2023/04/10 08:48:52;;;;;;;18.83;16.83;;;19.30;76.30;;;;;;6068094;23;95597;-75
2023/04/10 08:51:20;;;;;;;15.48;13.70;;;19.40;76.20;;;;;;6094705;23;92390;-75
2023/04/10 08:53:57;;;;;;;17.05;15.25;;;19.00;75.10;;;;;;6094762;23;92394;-75
2023/04/10 08:56:24;;;;;;;17.90;15.13;;;18.60;75.70;;;;;;6044001;23;96211;-75
2023/04/10 08:58:52;;;;;;;21.10;15.02;;;18.30;76.40;;;;;;6068577;23;95852;-75
2023/04/10 09:01:20;;;;;;;18.10;16.20;;;18.10;76.80;;;;;;6068432;23;92422;-75
2023/04/10 09:03:47;;;;;;;17.92;15.98;;;18.00;77.90;;;;;;6043986;23;92543;-75
2023/04/10 09:06:14;;;;;;;19.52;16.27;;;17.60;77.30;;;;;;6067078;23;95216;-75
2023/04/10 09:08:41;;;;;;;18.23;15.88;;;17.50;77.50;;;;;;6093953;23;95389;-75
2023/04/10 09:11:09;;;;;;;20.23;16.35;;;17.40;78.50;;;;;;6094392;23;92367;-75
2023/04/10 09:13:43;;;;;;;18.65;16.52;;;17.40;79.00;;;;;;6068347;23;92389;-75
2023/04/10 09:16:12;;;;;;;19.98;16.10;;;17.40;79.20;;;;;;6068152;23;95649;-75
2023/04/10 09:18:46;;;;;;;17.88;16.08;;;17.20;79.80;;;;;;6067644;23;95403;-75
2023/04/10 09:21:18;;;;;;;17.30;14.98;;;17.40;78.80;;;;;;6095745;23;92299;-75
2023/04/10 09:23:46;;;;;;;18.35;15.90;;;17.40;79.80;;;;;;6070176;23;92176;-75
2023/04/10 09:26:31;;;;;;;17.02;14.80;;;17.60;80.90;;;;;;6095460;23;93102;-75
2023/04/10 09:29:06;;;;;;;17.15;15.25;;;17.80;80.60;;;;;;6095565;23;92953;-75
2023/04/10 09:31:37;;;;;;;16.83;15.02;;;17.60;79.80;;;;;;6094194;23;94802;-74
2023/04/10 09:34:17;;;;;;;17.48;14.90;;;17.60;79.10;;;;;;6095660;23;92418;-75
2023/04/10 09:36:58;;;;;;;18.27;14.77;;;17.80;79.90;;;;;;6069611;23;93583;-76
2023/04/10 09:39:42;;;;;;;16.58;14.52;;;17.70;79.40;;;;;;6069400;23;94791;-75
2023/04/10 09:42:13;;;;;;;15.77;13.95;;;17.80;79.70;;;;;;6069498;23;92551;-75
2023/04/10 09:44:41;;;;;;;16.58;14.32;;;17.50;79.30;;;;;;6044689;23;92518;-75
2023/04/10 09:47:17;;;;;;;17.27;15.27;;;17.70;79.60;;;;;;6068228;23;113057;-75
2023/04/10 09:49:45;;;;;;;15.65;13.88;;;17.90;79.70;;;;;;6095882;23;91720;-75
2023/04/10 09:52:18;;;;;;;16.38;14.38;;;18.00;80.00;;;;;;6045043;23;92413;-75
2023/04/10 09:54:45;;;;;;;16.48;14.23;;;17.90;78.80;;;;;;6069536;23;92394;-75
2023/04/10 09:57:17;;;;;;;18.73;14.30;;;17.80;78.80;;;;;;6043402;23;98071;-75
2023/04/10 09:59:53;;;;;;;15.30;13.63;;;18.00;79.30;;;;;;6095213;23;95300;-75
2023/04/10 10:02:22;;;;;;;15.45;13.23;;;18.20;78.80;;;;;;6045010;23;92352;-75
2023/04/10 10:04:51;;;;;;;15.52;13.10;;;18.40;79.40;;;;;;6095159;23;92354;-75
2023/04/10 10:07:20;;;;;;;15.30;13.70;;;18.50;79.20;;;;;;6095685;23;93120;-75
2023/04/10 10:09:49;;;;;;;14.48;12.95;;;18.60;78.20;;;;;;6068632;23;95730;-75
2023/04/10 10:12:30;;;;;;;12.60;11.30;;;18.70;77.90;;;;;;6095572;23;92464;-75
2023/04/10 10:15:09;;;;;;;17.30;13.07;;;18.60;77.30;;;;;;6096041;23;91591;-75
2023/04/10 10:17:45;;;;;;;15.95;11.80;;;18.60;77.00;;;;;;6069380;23;92938;-75
2023/04/10 10:20:16;;;;;;;13.45;12.05;;;18.50;76.40;;;;;;6095494;23;94524;-75
2023/04/10 10:22:44;;;;;;;14.30;12.70;;;18.40;77.70;;;;;;6093628;23;95039;-75
2023/04/10 10:25:12;;;;;;;12.85;11.00;;;18.50;78.40;;;;;;6068991;23;92441;-75
2023/04/10 10:27:41;;;;;;;13.57;11.43;;;18.70;76.70;;;;;;6069107;23;93896;-75
2023/04/10 10:30:11;;;;;;;13.23;11.98;;;18.70;76.00;;;;;;6095044;23;92400;-75
2023/04/10 10:32:55;;;;;;;12.45;10.55;;;18.70;76.00;;;;;;6095037;23;92320;-75
2023/04/10 10:35:23;;;;;;;12.88;11.15;;;18.70;76.00;;;;;;6045518;23;92943;-75
2023/04/10 10:37:53;;;;;;;11.68;10.55;;;18.70;76.70;;;;;;6094942;23;93333;-75
2023/04/10 10:40:27;;;;;;;12.35;11.15;;;18.80;76.20;;;;;;6069227;23;95508;-75
2023/04/10 10:42:57;;;;;;;10.13;8.45;;;19.10;75.10;;;;;;6095313;23;92778;-75
2023/04/10 10:45:36;;;;;;;10.52;9.52;;;19.10;74.40;;;;;;6095989;23;94273;-75
2023/04/10 10:48:03;;;;;;;11.35;9.88;;;19.10;74.50;;;;;;6043955;23;98104;-75
2023/04/10 10:50:59;;;;;;;10.68;9.60;;;19.10;74.60;;;;;;6044711;23;109769;-75
2023/04/10 10:53:42;;;;;;;12.38;8.85;;;19.20;73.90;;;;;;6096079;23;92424;-75
2023/04/10 10:56:18;;;;;;;9.65;8.63;;;19.10;73.90;;;;;;6045863;23;92735;-75
2023/04/10 10:58:54;;;;;;;9.52;8.52;;;19.20;73.60;;;;;;6095442;23;93081;-75
2023/04/10 11:01:22;;;;;;;9.40;8.43;;;19.40;74.30;;;;;;6070110;23;92633;-75
2023/04/10 11:03:49;;;;;;;9.98;9.02;;;19.50;74.00;;;;;;6094661;23;92587;-75
2023/04/10 11:06:18;;;;;;;9.85;7.80;;;19.40;73.00;;;;;;6045886;23;92311;-75
2023/04/10 11:08:51;;;;;;;8.60;7.75;;;19.60;73.50;;;;;;6095571;23;93121;-75
2023/04/10 11:11:23;;;;;;;8.80;7.95;;;19.80;73.70;;;;;;6069739;23;95009;-75
2023/04/10 11:13:56;;;;;;;9.63;8.65;;;19.80;72.30;;;;;;6094524;23;95668;-75
2023/04/10 11:16:42;;;;;;;10.57;8.68;;;19.80;72.40;;;;;;6070204;23;92432;-75
2023/04/10 11:19:13;;;;;;;9.52;8.50;;;19.90;72.30;;;;;;6095842;23;92357;-75
2023/04/10 11:22:14;;;;;;;8.60;7.80;;;19.80;71.90;;;;;;6046911;23;92979;-75
2023/04/10 11:24:58;;;;;;;8.27;7.47;;;19.80;71.20;;;;;;6013542;23;92474;-75
2023/04/10 11:27:47;;;;;;;8.93;7.50;;;19.80;71.80;;;;;;6096005;23;92376;-75
2023/04/10 11:30:30;;;;;;;9.05;7.20;;;19.80;72.00;;;;;;6070122;23;92953;-75
2023/04/10 11:32:59;;;;;;;7.83;6.70;;;19.90;71.70;;;;;;6045595;23;95459;-75
2023/04/10 11:35:27;;;;;;;7.10;6.50;;;19.90;71.90;;;;;;6095957;23;92415;-75
2023/04/10 11:38:15;;;;;;;6.90;6.30;;;19.80;70.80;;;;;;6070024;23;92627;-75
2023/04/10 11:41:01;;;;;;;8.10;6.63;;;20.00;70.90;;;;;;6067947;23;99166;-75
2023/04/10 11:43:27;;;;;;;7.00;6.30;;;20.00;71.00;;;;;;6069239;23;98305;-75
2023/04/10 11:46:13;;;;;;;7.40;6.70;;;19.90;70.90;;;;;;6095619;23;92342;-75
2023/04/10 11:48:40;;;;;;;7.40;6.43;;;20.00;70.20;;;;;;6096068;23;92860;-75
2023/04/10 11:51:09;;;;;;;7.18;5.85;;;20.00;71.50;;;;;;6069700;23;92424;-75
2023/04/10 11:53:37;;;;;;;6.38;5.75;;;20.00;71.10;;;;;;6069186;23;94036;-75
2023/04/10 11:56:06;;;;;;;6.57;5.97;;;20.00;71.10;;;;;;6095645;23;92313;-75
2023/04/10 11:58:33;;;;;;;6.90;6.20;;;20.00;69.90;;;;;;6096332;23;91663;-75
2023/04/10 12:01:02;;;;;;;5.68;5.18;;;20.00;69.70;;;;;;6095311;23;93253;-75
2023/04/10 12:03:41;;;;;;;5.85;5.25;;;20.10;69.60;;;;;;6069032;23;95687;-75
2023/04/10 12:06:11;;;;;;;6.05;5.18;;;20.20;69.40;;;;;;6094063;23;94855;-75
2023/04/10 12:08:45;;;;;;;6.10;5.57;;;20.10;70.10;;;;;;6095838;23;92294;-76
2023/04/10 12:11:12;;;;;;;6.05;4.90;;;20.00;69.80;;;;;;6069494;23;95930;-75
2023/04/10 12:13:39;;;;;;;6.25;5.05;;;19.90;69.80;;;;;;6045060;23;94761;-76
2023/04/10 12:16:08;;;;;;;6.28;5.00;;;19.90;69.80;;;;;;6069195;23;92525;-76
2023/04/10 12:18:36;;;;;;;4.47;4.07;;;19.90;69.50;;;;;;6069308;23;92438;-76
2023/04/10 12:21:05;;;;;;;5.60;4.97;;;19.80;69.00;;;;;;6095176;23;93100;-75
2023/04/10 12:23:37;;;;;;;4.93;4.43;;;20.00;70.00;;;;;;6046368;23;92904;-75
2023/04/10 12:26:10;;;;;;;4.38;3.97;;;20.10;69.80;;;;;;6068935;23;92350;-75
2023/04/10 12:28:39;;;;;;;4.78;3.85;;;20.30;69.60;;;;;;6045249;23;92584;-76
2023/04/10 12:31:07;;;;;;;4.20;3.72;;;20.60;69.10;;;;;;6093731;23;95707;-75
2023/04/10 12:33:34;;;;;;;4.13;3.75;;;20.80;68.60;;;;;;6068950;23;98359;-76
2023/04/10 12:36:01;;;;;;;4.10;3.70;;;20.90;68.90;;;;;;6093550;23;92345;-75
2023/04/10 12:38:35;;;;;;;4.55;4.03;;;20.90;67.90;;;;;;6095839;23;92380;-75
2023/04/10 12:41:03;;;;;;;4.90;4.50;;;21.10;67.90;;;;;;6095055;23;92986;-75
2023/04/10 12:43:35;;;;;;;4.25;3.95;;;21.00;68.60;;;;;;6069140;23;100447;-75
2023/04/10 12:46:04;;;;;;;7.22;4.90;;;21.00;67.50;;;;;;6069110;23;92769;-75
2023/04/10 12:48:31;;;;;;;4.68;4.28;;;20.70;67.70;;;;;;6069004;23;99662;-75
2023/04/10 12:50:59;;;;;;;4.28;3.95;;;20.70;68.20;;;;;;6020491;23;94981;-75
2023/04/10 12:53:27;;;;;;;6.60;3.90;;;20.60;68.70;;;;;;6068837;23;95428;-75
2023/04/10 12:56:01;;;;;;;4.90;4.30;;;20.50;68.50;;;;;;6068982;23;94811;-75
2023/04/10 12:58:30;;;;;;;4.57;4.05;;;20.50;68.50;;;;;;6070458;23;92426;-75
2023/04/10 13:01:08;;;;;;;4.50;4.05;;;20.20;69.10;;;;;;6096703;23;93152;-75
2023/04/10 13:03:36;;;;;;;4.35;3.95;;;20.30;69.80;;;;;;6070520;23;92825;-75